sensor_id;sensor_type;location;lat;lon;timestamp;temperature;humidity
5280;DHT22;2663;53.588;10.010;2024-01-30T00:02:17;7.40;99.90
5280;DHT22;2663;53.588;10.010;2024-01-30T00:04:43;7.30;99.90
5280;DHT22;2663;53.588;10.010;2024-01-30T00:07:10;7.30;99.90
5280;DHT22;2663;53.588;10.010;2024-01-30T00:09:38;7.30;99.90
5280;DHT22;2663;53.588;10.010;2024-01-30T00:12:06;6.40;99.90
5280;DHT22;2663;53.588;10.010;2024-01-30T00:14:33;7.30;99.90
5280;DHT22;2663;53.588;10.010;2024-01-30T00:16:59;8.50;99.90
5280;DHT22;2663;53.588;10.010;2024-01-30T00:19:26;7.30;99.90
5280;DHT22;2663;53.588;10.010;2024-01-30T00:21:53;7.20;99.90
5280;DHT22;2663;53.588;10.010;2024-01-30T00:24:20;7.20;99.90
5280;DHT22;2663;53.588;10.010;2024-01-30T00:26:46;7.20;99.90
5280;DHT22;2663;53.588;10.010;2024-01-30T00:29:13;7.10;99.90
5280;DHT22;2663;53.588;10.010;2024-01-30T00:31:46;7.20;99.90
5280;DHT22;2663;53.588;10.010;2024-01-30T00:34:12;7.20;99.90
5280;DHT22;2663;53.588;10.010;2024-01-30T00:36:39;8.20;99.90
5280;DHT22;2663;53.588;10.010;2024-01-30T00:39:06;7.20;99.90
5280;DHT22;2663;53.588;10.010;2024-01-30T00:41:35;8.30;99.90
5280;DHT22;2663;53.588;10.010;2024-01-30T00:44:02;7.80;99.90
5280;DHT22;2663;53.588;10.010;2024-01-30T00:46:29;7.20;99.90
5280;DHT22;2663;53.588;10.010;2024-01-30T00:48:56;7.20;99.90
5280;DHT22;2663;53.588;10.010;2024-01-30T00:51:22;7.20;99.90
5280;DHT22;2663;53.588;10.010;2024-01-30T00:53:49;7.10;99.90
5280;DHT22;2663;53.588;10.010;2024-01-30T00:56:16;7.10;99.90
5280;DHT22;2663;53.588;10.010;2024-01-30T00:58:45;7.10;99.90
5280;DHT22;2663;53.588;10.010;2024-01-30T01:01:11;7.10;99.90
5280;DHT22;2663;53.588;10.010;2024-01-30T01:03:38;7.20;99.90
5280;DHT22;2663;53.588;10.010;2024-01-30T01:06:07;7.20;99.90
5280;DHT22;2663;53.588;10.010;2024-01-30T01:08:34;7.20;99.90
5280;DHT22;2663;53.588;10.010;2024-01-30T01:11:01;7.20;99.90
5280;DHT22;2663;53.588;10.010;2024-01-30T01:13:27;7.20;99.90
5280;DHT22;2663;53.588;10.010;2024-01-30T01:15:54;7.10;99.90
5280;DHT22;2663;53.588;10.010;2024-01-30T01:18:21;7.20;99.90
5280;DHT22;2663;53.588;10.010;2024-01-30T01:20:48;7.10;99.90
5280;DHT22;2663;53.588;10.010;2024-01-30T01:23:15;7.20;99.90
5280;DHT22;2663;53.588;10.010;2024-01-30T01:25:42;7.20;99.90
5280;DHT22;2663;53.588;10.010;2024-01-30T01:28:09;7.10;99.90
5280;DHT22;2663;53.588;10.010;2024-01-30T01:30:35;7.10;99.90
5280;DHT22;2663;53.588;10.010;2024-01-30T01:33:02;6.90;99.90
5280;DHT22;2663;53.588;10.010;2024-01-30T01:35:29;7.10;99.90
5280;DHT22;2663;53.588;10.010;2024-01-30T01:37:56;7.10;99.90
5280;DHT22;2663;53.588;10.010;2024-01-30T01:40:24;7.00;99.90
5280;DHT22;2663;53.588;10.010;2024-01-30T01:42:52;7.10;99.90
5280;DHT22;2663;53.588;10.010;2024-01-30T01:45:20;7.10;99.90
5280;DHT22;2663;53.588;10.010;2024-01-30T01:47:50;7.10;99.90
5280;DHT22;2663;53.588;10.010;2024-01-30T01:50:17;7.10;99.90
5280;DHT22;2663;53.588;10.010;2024-01-30T01:52:48;7.10;99.90
5280;DHT22;2663;53.588;10.010;2024-01-30T01:55:16;7.10;99.90
5280;DHT22;2663;53.588;10.010;2024-01-30T01:57:45;7.00;99.90
5280;DHT22;2663;53.588;10.010;2024-01-30T02:00:12;7.00;99.90
5280;DHT22;2663;53.588;10.010;2024-01-30T02:02:39;7.00;99.90
5280;DHT22;2663;53.588;10.010;2024-01-30T02:05:08;7.00;99.90
5280;DHT22;2663;53.588;10.010;2024-01-30T02:07:35;8.20;99.90
5280;DHT22;2663;53.588;10.010;2024-01-30T02:10:02;7.00;99.90
5280;DHT22;2663;53.588;10.010;2024-01-30T02:12:30;7.00;99.90
5280;DHT22;2663;53.588;10.010;2024-01-30T02:14:57;6.40;99.90
5280;DHT22;2663;53.588;10.010;2024-01-30T02:17:24;7.00;99.90
5280;DHT22;2663;53.588;10.010;2024-01-30T02:19:52;7.10;99.90
5280;DHT22;2663;53.588;10.010;2024-01-30T02:22:20;7.10;99.90
5280;DHT22;2663;53.588;10.010;2024-01-30T02:24:46;7.20;99.90
5280;DHT22;2663;53.588;10.010;2024-01-30T02:27:13;7.20;99.90
5280;DHT22;2663;53.588;10.010;2024-01-30T02:29:40;7.20;99.90
5280;DHT22;2663;53.588;10.010;2024-01-30T02:32:07;7.20;99.90
5280;DHT22;2663;53.588;10.010;2024-01-30T02:34:34;7.20;99.90
5280;DHT22;2663;53.588;10.010;2024-01-30T02:37:01;7.20;99.90
5280;DHT22;2663;53.588;10.010;2024-01-30T02:39:29;7.20;99.90
5280;DHT22;2663;53.588;10.010;2024-01-30T02:41:56;7.20;99.90
5280;DHT22;2663;53.588;10.010;2024-01-30T02:44:23;7.10;99.90
5280;DHT22;2663;53.588;10.010;2024-01-30T02:46:50;7.10;99.90
5280;DHT22;2663;53.588;10.010;2024-01-30T02:49:17;7.10;99.90
5280;DHT22;2663;53.588;10.010;2024-01-30T02:51:43;7.10;99.90
5280;DHT22;2663;53.588;10.010;2024-01-30T02:54:10;7.10;99.90
5280;DHT22;2663;53.588;10.010;2024-01-30T02:56:37;7.70;99.90
5280;DHT22;2663;53.588;10.010;2024-01-30T02:59:04;7.10;99.90
5280;DHT22;2663;53.588;10.010;2024-01-30T03:01:30;7.00;99.90
5280;DHT22;2663;53.588;10.010;2024-01-30T03:03:58;7.00;99.90
5280;DHT22;2663;53.588;10.010;2024-01-30T03:06:25;7.10;99.90
5280;DHT22;2663;53.588;10.010;2024-01-30T03:08:52;7.00;99.90
5280;DHT22;2663;53.588;10.010;2024-01-30T03:11:18;7.10;99.90
5280;DHT22;2663;53.588;10.010;2024-01-30T03:13:45;7.00;99.90
5280;DHT22;2663;53.588;10.010;2024-01-30T03:16:12;7.00;99.90
5280;DHT22;2663;53.588;10.010;2024-01-30T03:18:39;7.00;99.90
5280;DHT22;2663;53.588;10.010;2024-01-30T03:21:06;7.00;99.90
5280;DHT22;2663;53.588;10.010;2024-01-30T03:23:32;7.00;99.90
5280;DHT22;2663;53.588;10.010;2024-01-30T03:25:59;7.00;99.90
5280;DHT22;2663;53.588;10.010;2024-01-30T03:28:26;7.00;99.90
5280;DHT22;2663;53.588;10.010;2024-01-30T03:30:52;7.00;99.90
5280;DHT22;2663;53.588;10.010;2024-01-30T03:33:19;7.00;99.90
5280;DHT22;2663;53.588;10.010;2024-01-30T03:35:46;6.90;99.90
5280;DHT22;2663;53.588;10.010;2024-01-30T03:38:13;6.90;99.90
5280;DHT22;2663;53.588;10.010;2024-01-30T03:40:39;6.90;99.90
5280;DHT22;2663;53.588;10.010;2024-01-30T03:43:06;6.90;99.90
5280;DHT22;2663;53.588;10.010;2024-01-30T03:45:33;6.80;99.90
5280;DHT22;2663;53.588;10.010;2024-01-30T03:48:00;6.80;99.90
5280;DHT22;2663;53.588;10.010;2024-01-30T03:50:26;6.80;99.90
5280;DHT22;2663;53.588;10.010;2024-01-30T03:52:54;6.80;99.90
5280;DHT22;2663;53.588;10.010;2024-01-30T03:55:21;6.80;99.90
5280;DHT22;2663;53.588;10.010;2024-01-30T03:57:48;6.70;99.90
5280;DHT22;2663;53.588;10.010;2024-01-30T04:00:15;6.70;99.90
5280;DHT22;2663;53.588;10.010;2024-01-30T04:02:41;6.70;99.90
5280;DHT22;2663;53.588;10.010;2024-01-30T04:05:08;6.60;99.90
5280;DHT22;2663;53.588;10.010;2024-01-30T04:07:35;7.10;99.90
5280;DHT22;2663;53.588;10.010;2024-01-30T04:10:03;6.70;99.90
5280;DHT22;2663;53.588;10.010;2024-01-30T04:12:32;6.70;99.90
5280;DHT22;2663;53.588;10.010;2024-01-30T04:14:58;6.70;99.90
5280;DHT22;2663;53.588;10.010;2024-01-30T04:17:25;6.70;99.90
5280;DHT22;2663;53.588;10.010;2024-01-30T04:19:52;6.60;99.90
5280;DHT22;2663;53.588;10.010;2024-01-30T04:22:19;6.70;99.90
5280;DHT22;2663;53.588;10.010;2024-01-30T04:24:46;7.00;99.90
5280;DHT22;2663;53.588;10.010;2024-01-30T04:27:13;6.80;99.90
5280;DHT22;2663;53.588;10.010;2024-01-30T04:29:39;6.80;99.90
5280;DHT22;2663;53.588;10.010;2024-01-30T04:32:06;6.70;99.90
5280;DHT22;2663;53.588;10.010;2024-01-30T04:34:33;6.70;99.90
5280;DHT22;2663;53.588;10.010;2024-01-30T04:37:00;6.60;99.90
5280;DHT22;2663;53.588;10.010;2024-01-30T04:39:27;6.70;99.90
5280;DHT22;2663;53.588;10.010;2024-01-30T04:41:53;6.70;99.90
5280;DHT22;2663;53.588;10.010;2024-01-30T04:44:20;6.70;99.90
5280;DHT22;2663;53.588;10.010;2024-01-30T04:46:47;6.60;99.90
5280;DHT22;2663;53.588;10.010;2024-01-30T04:49:14;6.60;99.90
5280;DHT22;2663;53.588;10.010;2024-01-30T04:51:41;6.60;99.90
5280;DHT22;2663;53.588;10.010;2024-01-30T04:54:08;6.60;99.90
5280;DHT22;2663;53.588;10.010;2024-01-30T04:56:34;6.60;99.90
5280;DHT22;2663;53.588;10.010;2024-01-30T04:59:02;6.60;99.90
5280;DHT22;2663;53.588;10.010;2024-01-30T05:01:29;6.60;99.90
5280;DHT22;2663;53.588;10.010;2024-01-30T05:03:56;6.50;99.90
5280;DHT22;2663;53.588;10.010;2024-01-30T05:06:27;6.50;99.90
5280;DHT22;2663;53.588;10.010;2024-01-30T05:08:54;6.60;99.90
5280;DHT22;2663;53.588;10.010;2024-01-30T05:11:20;6.60;99.90
5280;DHT22;2663;53.588;10.010;2024-01-30T05:13:47;6.50;99.90
5280;DHT22;2663;53.588;10.010;2024-01-30T05:16:14;6.50;99.90
5280;DHT22;2663;53.588;10.010;2024-01-30T05:18:41;6.50;99.90
5280;DHT22;2663;53.588;10.010;2024-01-30T05:21:08;6.40;99.90
5280;DHT22;2663;53.588;10.010;2024-01-30T05:23:34;6.40;99.90
5280;DHT22;2663;53.588;10.010;2024-01-30T05:26:01;6.50;99.90
5280;DHT22;2663;53.588;10.010;2024-01-30T05:28:29;6.40;99.90
5280;DHT22;2663;53.588;10.010;2024-01-30T05:30:56;6.60;99.90
5280;DHT22;2663;53.588;10.010;2024-01-30T05:33:23;6.60;99.90
5280;DHT22;2663;53.588;10.010;2024-01-30T05:35:50;6.50;99.90
5280;DHT22;2663;53.588;10.010;2024-01-30T05:38:20;6.50;99.90
5280;DHT22;2663;53.588;10.010;2024-01-30T05:40:47;7.50;99.90
5280;DHT22;2663;53.588;10.010;2024-01-30T05:43:14;6.70;99.90
5280;DHT22;2663;53.588;10.010;2024-01-30T05:45:41;6.70;99.90
5280;DHT22;2663;53.588;10.010;2024-01-30T05:48:08;6.70;99.90
5280;DHT22;2663;53.588;10.010;2024-01-30T05:50:35;6.80;99.90
5280;DHT22;2663;53.588;10.010;2024-01-30T05:53:01;6.70;99.90
5280;DHT22;2663;53.588;10.010;2024-01-30T05:55:28;6.70;99.90
5280;DHT22;2663;53.588;10.010;2024-01-30T05:57:55;6.70;99.90
5280;DHT22;2663;53.588;10.010;2024-01-30T06:00:22;6.80;99.90
5280;DHT22;2663;53.588;10.010;2024-01-30T06:02:49;6.70;99.90
5280;DHT22;2663;53.588;10.010;2024-01-30T06:05:16;6.70;99.90
5280;DHT22;2663;53.588;10.010;2024-01-30T06:07:43;6.70;99.90
5280;DHT22;2663;53.588;10.010;2024-01-30T06:10:10;6.70;99.90
5280;DHT22;2663;53.588;10.010;2024-01-30T06:12:37;6.70;99.90
5280;DHT22;2663;53.588;10.010;2024-01-30T06:15:04;6.70;99.90
5280;DHT22;2663;53.588;10.010;2024-01-30T06:17:31;6.70;99.90
5280;DHT22;2663;53.588;10.010;2024-01-30T06:19:58;6.70;99.90
5280;DHT22;2663;53.588;10.010;2024-01-30T06:22:25;6.80;99.90
5280;DHT22;2663;53.588;10.010;2024-01-30T06:24:51;6.60;99.90
5280;DHT22;2663;53.588;10.010;2024-01-30T06:27:18;6.60;99.90
5280;DHT22;2663;53.588;10.010;2024-01-30T06:29:46;6.60;99.90
5280;DHT22;2663;53.588;10.010;2024-01-30T06:32:12;6.60;99.90
5280;DHT22;2663;53.588;10.010;2024-01-30T06:34:41;6.70;99.90
5280;DHT22;2663;53.588;10.010;2024-01-30T06:37:08;6.70;99.90
5280;DHT22;2663;53.588;10.010;2024-01-30T06:39:35;6.70;99.90
5280;DHT22;2663;53.588;10.010;2024-01-30T06:42:01;6.80;99.90
5280;DHT22;2663;53.588;10.010;2024-01-30T06:44:28;6.80;99.90
5280;DHT22;2663;53.588;10.010;2024-01-30T06:46:58;6.90;99.90
5280;DHT22;2663;53.588;10.010;2024-01-30T06:49:25;7.00;99.90
5280;DHT22;2663;53.588;10.010;2024-01-30T06:51:52;7.20;99.90
5280;DHT22;2663;53.588;10.010;2024-01-30T06:54:19;7.40;99.90
5280;DHT22;2663;53.588;10.010;2024-01-30T06:56:46;7.50;99.90
5280;DHT22;2663;53.588;10.010;2024-01-30T06:59:12;8.10;99.90
5280;DHT22;2663;53.588;10.010;2024-01-30T07:01:39;7.30;99.90
5280;DHT22;2663;53.588;10.010;2024-01-30T07:04:06;7.30;99.90
5280;DHT22;2663;53.588;10.010;2024-01-30T07:06:33;7.20;99.90
5280;DHT22;2663;53.588;10.010;2024-01-30T07:09:00;7.30;99.90
5280;DHT22;2663;53.588;10.010;2024-01-30T07:11:26;7.30;99.90
5280;DHT22;2663;53.588;10.010;2024-01-30T07:13:55;7.20;99.90
5280;DHT22;2663;53.588;10.010;2024-01-30T07:16:22;7.20;99.90
5280;DHT22;2663;53.588;10.010;2024-01-30T07:18:49;7.00;99.90
5280;DHT22;2663;53.588;10.010;2024-01-30T07:21:17;7.00;99.90
5280;DHT22;2663;53.588;10.010;2024-01-30T07:23:43;8.30;99.90
5280;DHT22;2663;53.588;10.010;2024-01-30T07:26:11;7.00;99.90
5280;DHT22;2663;53.588;10.010;2024-01-30T07:28:37;7.00;99.90
5280;DHT22;2663;53.588;10.010;2024-01-30T07:31:04;7.00;99.90
5280;DHT22;2663;53.588;10.010;2024-01-30T07:33:33;6.90;99.90
5280;DHT22;2663;53.588;10.010;2024-01-30T07:35:59;6.90;99.90
5280;DHT22;2663;53.588;10.010;2024-01-30T07:38:26;7.00;99.90
5280;DHT22;2663;53.588;10.010;2024-01-30T07:40:53;7.00;99.90
5280;DHT22;2663;53.588;10.010;2024-01-30T07:43:20;7.10;99.90
5280;DHT22;2663;53.588;10.010;2024-01-30T07:45:47;7.30;99.90
5280;DHT22;2663;53.588;10.010;2024-01-30T07:48:13;7.50;99.90
5280;DHT22;2663;53.588;10.010;2024-01-30T07:50:40;7.60;99.90
5280;DHT22;2663;53.588;10.010;2024-01-30T07:53:08;7.50;99.90
5280;DHT22;2663;53.588;10.010;2024-01-30T07:55:34;7.40;99.90
5280;DHT22;2663;53.588;10.010;2024-01-30T07:58:01;7.40;99.90
5280;DHT22;2663;53.588;10.010;2024-01-30T08:00:28;7.40;99.90
5280;DHT22;2663;53.588;10.010;2024-01-30T08:02:56;7.40;99.90
5280;DHT22;2663;53.588;10.010;2024-01-30T08:05:23;7.40;99.90
5280;DHT22;2663;53.588;10.010;2024-01-30T08:07:51;7.50;99.90
5280;DHT22;2663;53.588;10.010;2024-01-30T08:10:18;7.50;99.90
5280;DHT22;2663;53.588;10.010;2024-01-30T08:12:45;7.50;99.90
5280;DHT22;2663;53.588;10.010;2024-01-30T08:15:12;7.50;99.90
5280;DHT22;2663;53.588;10.010;2024-01-30T08:17:41;7.50;99.90
5280;DHT22;2663;53.588;10.010;2024-01-30T08:20:08;7.60;99.90
5280;DHT22;2663;53.588;10.010;2024-01-30T08:22:40;7.60;99.90
5280;DHT22;2663;53.588;10.010;2024-01-30T08:25:07;7.60;99.90
5280;DHT22;2663;53.588;10.010;2024-01-30T08:27:35;7.60;99.90
5280;DHT22;2663;53.588;10.010;2024-01-30T08:30:02;7.70;99.90
5280;DHT22;2663;53.588;10.010;2024-01-30T08:32:29;7.80;99.90
5280;DHT22;2663;53.588;10.010;2024-01-30T08:34:56;7.90;99.90
5280;DHT22;2663;53.588;10.010;2024-01-30T08:37:24;8.30;99.90
5280;DHT22;2663;53.588;10.010;2024-01-30T08:39:51;8.50;99.90
5280;DHT22;2663;53.588;10.010;2024-01-30T08:42:18;8.40;99.90
5280;DHT22;2663;53.588;10.010;2024-01-30T08:44:49;8.30;99.90
5280;DHT22;2663;53.588;10.010;2024-01-30T08:47:18;8.20;99.90
5280;DHT22;2663;53.588;10.010;2024-01-30T08:49:45;8.20;99.90
5280;DHT22;2663;53.588;10.010;2024-01-30T08:52:12;8.10;99.90
5280;DHT22;2663;53.588;10.010;2024-01-30T08:54:39;8.10;99.90
5280;DHT22;2663;53.588;10.010;2024-01-30T08:57:05;7.90;99.90
5280;DHT22;2663;53.588;10.010;2024-01-30T08:59:32;7.90;99.90
5280;DHT22;2663;53.588;10.010;2024-01-30T09:02:00;8.00;99.90
5280;DHT22;2663;53.588;10.010;2024-01-30T09:04:38;8.00;99.90
5280;DHT22;2663;53.588;10.010;2024-01-30T09:07:06;7.90;99.90
5280;DHT22;2663;53.588;10.010;2024-01-30T09:09:37;8.00;99.90
5280;DHT22;2663;53.588;10.010;2024-01-30T09:12:04;8.00;99.90
5280;DHT22;2663;53.588;10.010;2024-01-30T09:14:38;8.00;99.90
5280;DHT22;2663;53.588;10.010;2024-01-30T09:17:05;8.10;99.90
5280;DHT22;2663;53.588;10.010;2024-01-30T09:19:32;8.10;99.90
5280;DHT22;2663;53.588;10.010;2024-01-30T09:21:59;8.20;99.90
5280;DHT22;2663;53.588;10.010;2024-01-30T09:24:27;8.30;99.90
5280;DHT22;2663;53.588;10.010;2024-01-30T09:26:54;8.30;99.90
5280;DHT22;2663;53.588;10.010;2024-01-30T09:29:21;8.40;99.90
5280;DHT22;2663;53.588;10.010;2024-01-30T09:31:48;8.40;99.90
5280;DHT22;2663;53.588;10.010;2024-01-30T09:34:15;8.50;99.90
5280;DHT22;2663;53.588;10.010;2024-01-30T09:36:42;8.50;99.90
5280;DHT22;2663;53.588;10.010;2024-01-30T09:39:08;8.50;99.90
5280;DHT22;2663;53.588;10.010;2024-01-30T09:41:47;8.50;99.90
5280;DHT22;2663;53.588;10.010;2024-01-30T09:44:16;8.50;99.90
5280;DHT22;2663;53.588;10.010;2024-01-30T09:46:46;8.60;99.90
5280;DHT22;2663;53.588;10.010;2024-01-30T09:49:13;8.60;99.90
5280;DHT22;2663;53.588;10.010;2024-01-30T09:51:44;8.70;99.90
5280;DHT22;2663;53.588;10.010;2024-01-30T09:54:14;8.70;99.90
5280;DHT22;2663;53.588;10.010;2024-01-30T09:56:41;8.70;99.90
5280;DHT22;2663;53.588;10.010;2024-01-30T09:59:08;8.80;99.90
5280;DHT22;2663;53.588;10.010;2024-01-30T10:01:35;8.90;99.90
5280;DHT22;2663;53.588;10.010;2024-01-30T10:04:04;9.00;99.90
5280;DHT22;2663;53.588;10.010;2024-01-30T10:06:31;9.00;99.90
5280;DHT22;2663;53.588;10.010;2024-01-30T10:08:57;9.00;99.90
5280;DHT22;2663;53.588;10.010;2024-01-30T10:11:24;9.10;99.90
5280;DHT22;2663;53.588;10.010;2024-01-30T10:13:51;9.10;99.90
5280;DHT22;2663;53.588;10.010;2024-01-30T10:16:18;9.10;99.90
5280;DHT22;2663;53.588;10.010;2024-01-30T10:18:45;9.10;99.90
5280;DHT22;2663;53.588;10.010;2024-01-30T10:21:12;9.10;99.90
5280;DHT22;2663;53.588;10.010;2024-01-30T10:23:39;9.10;99.90
5280;DHT22;2663;53.588;10.010;2024-01-30T10:26:07;9.10;99.90
5280;DHT22;2663;53.588;10.010;2024-01-30T10:28:34;9.10;99.90
5280;DHT22;2663;53.588;10.010;2024-01-30T10:31:02;9.10;99.90
5280;DHT22;2663;53.588;10.010;2024-01-30T10:33:32;9.20;99.90
5280;DHT22;2663;53.588;10.010;2024-01-30T10:36:06;9.20;99.90
5280;DHT22;2663;53.588;10.010;2024-01-30T10:38:33;9.20;99.90
5280;DHT22;2663;53.588;10.010;2024-01-30T10:41:01;9.30;99.90
5280;DHT22;2663;53.588;10.010;2024-01-30T10:43:32;9.40;99.90
5280;DHT22;2663;53.588;10.010;2024-01-30T10:46:18;9.30;99.90
5280;DHT22;2663;53.588;10.010;2024-01-30T10:48:51;8.40;99.90
5280;DHT22;2663;53.588;10.010;2024-01-30T10:51:20;9.30;99.90
5280;DHT22;2663;53.588;10.010;2024-01-30T10:53:49;9.40;99.90
5280;DHT22;2663;53.588;10.010;2024-01-30T10:56:17;9.40;99.90
5280;DHT22;2663;53.588;10.010;2024-01-30T10:58:44;9.20;99.90
5280;DHT22;2663;53.588;10.010;2024-01-30T11:01:11;9.60;99.90
5280;DHT22;2663;53.588;10.010;2024-01-30T11:03:39;9.70;99.90
5280;DHT22;2663;53.588;10.010;2024-01-30T11:06:10;9.70;99.90
5280;DHT22;2663;53.588;10.010;2024-01-30T11:08:37;9.70;99.90
5280;DHT22;2663;53.588;10.010;2024-01-30T11:11:09;9.80;99.90
5280;DHT22;2663;53.588;10.010;2024-01-30T11:13:36;9.80;99.90
5280;DHT22;2663;53.588;10.010;2024-01-30T11:16:04;9.90;99.90
5280;DHT22;2663;53.588;10.010;2024-01-30T11:18:32;9.80;99.90
5280;DHT22;2663;53.588;10.010;2024-01-30T11:21:00;9.90;99.90
5280;DHT22;2663;53.588;10.010;2024-01-30T11:23:28;9.90;99.90
5280;DHT22;2663;53.588;10.010;2024-01-30T11:25:56;10.00;99.90
5280;DHT22;2663;53.588;10.010;2024-01-30T11:28:24;10.00;99.90
5280;DHT22;2663;53.588;10.010;2024-01-30T11:30:51;10.00;99.90
5280;DHT22;2663;53.588;10.010;2024-01-30T11:33:28;10.00;99.90
5280;DHT22;2663;53.588;10.010;2024-01-30T11:36:01;10.00;99.90
5280;DHT22;2663;53.588;10.010;2024-01-30T11:38:28;10.00;99.90
5280;DHT22;2663;53.588;10.010;2024-01-30T11:40:55;10.00;99.90
5280;DHT22;2663;53.588;10.010;2024-01-30T11:43:23;10.00;99.90
5280;DHT22;2663;53.588;10.010;2024-01-30T11:45:50;10.00;99.90
5280;DHT22;2663;53.588;10.010;2024-01-30T11:48:18;10.10;99.90
5280;DHT22;2663;53.588;10.010;2024-01-30T11:50:45;10.10;99.90
5280;DHT22;2663;53.588;10.010;2024-01-30T11:53:12;10.10;99.90
5280;DHT22;2663;53.588;10.010;2024-01-30T11:55:39;10.10;99.90
5280;DHT22;2663;53.588;10.010;2024-01-30T11:58:06;10.10;99.90
5280;DHT22;2663;53.588;10.010;2024-01-30T12:00:33;10.10;99.90
5280;DHT22;2663;53.588;10.010;2024-01-30T12:03:01;10.10;99.90
5280;DHT22;2663;53.588;10.010;2024-01-30T12:05:29;10.20;99.90
5280;DHT22;2663;53.588;10.010;2024-01-30T12:07:56;10.30;99.90
5280;DHT22;2663;53.588;10.010;2024-01-30T12:10:28;10.30;99.90
5280;DHT22;2663;53.588;10.010;2024-01-30T12:12:56;10.20;99.90
5280;DHT22;2663;53.588;10.010;2024-01-30T12:15:24;10.20;99.90
5280;DHT22;2663;53.588;10.010;2024-01-30T12:17:51;10.20;99.90
5280;DHT22;2663;53.588;10.010;2024-01-30T12:20:19;10.30;99.90
5280;DHT22;2663;53.588;10.010;2024-01-30T12:22:48;10.40;99.90
5280;DHT22;2663;53.588;10.010;2024-01-30T12:25:16;10.40;99.90
5280;DHT22;2663;53.588;10.010;2024-01-30T12:27:44;10.40;99.90
5280;DHT22;2663;53.588;10.010;2024-01-30T12:30:14;10.40;99.90
5280;DHT22;2663;53.588;10.010;2024-01-30T12:32:43;10.20;99.90
5280;DHT22;2663;53.588;10.010;2024-01-30T12:35:17;10.30;99.90
5280;DHT22;2663;53.588;10.010;2024-01-30T12:37:45;10.30;99.90
5280;DHT22;2663;53.588;10.010;2024-01-30T12:40:14;10.40;99.90
5280;DHT22;2663;53.588;10.010;2024-01-30T12:42:42;10.40;99.90
5280;DHT22;2663;53.588;10.010;2024-01-30T12:45:09;10.30;99.90
5280;DHT22;2663;53.588;10.010;2024-01-30T12:47:36;10.40;99.90
5280;DHT22;2663;53.588;10.010;2024-01-30T12:50:03;10.40;99.90
5280;DHT22;2663;53.588;10.010;2024-01-30T12:52:30;10.40;99.90
5280;DHT22;2663;53.588;10.010;2024-01-30T12:54:57;10.40;99.90
5280;DHT22;2663;53.588;10.010;2024-01-30T12:57:25;10.40;99.90
5280;DHT22;2663;53.588;10.010;2024-01-30T12:59:52;10.40;99.90
5280;DHT22;2663;53.588;10.010;2024-01-30T13:02:18;10.40;99.90
5280;DHT22;2663;53.588;10.010;2024-01-30T13:04:45;10.50;99.90
5280;DHT22;2663;53.588;10.010;2024-01-30T13:07:16;10.40;99.90
5280;DHT22;2663;53.588;10.010;2024-01-30T13:09:42;10.40;99.90
5280;DHT22;2663;53.588;10.010;2024-01-30T13:12:09;10.40;99.90
5280;DHT22;2663;53.588;10.010;2024-01-30T13:14:36;10.40;99.90
5280;DHT22;2663;53.588;10.010;2024-01-30T13:17:03;10.40;99.90
5280;DHT22;2663;53.588;10.010;2024-01-30T13:19:30;10.40;99.90
5280;DHT22;2663;53.588;10.010;2024-01-30T13:21:57;10.40;99.90
5280;DHT22;2663;53.588;10.010;2024-01-30T13:24:24;10.40;99.90
5280;DHT22;2663;53.588;10.010;2024-01-30T13:26:50;10.40;99.90
5280;DHT22;2663;53.588;10.010;2024-01-30T13:29:18;10.40;99.90
5280;DHT22;2663;53.588;10.010;2024-01-30T13:31:45;10.50;99.90
5280;DHT22;2663;53.588;10.010;2024-01-30T13:34:13;10.50;99.90
5280;DHT22;2663;53.588;10.010;2024-01-30T13:36:41;10.50;99.90
5280;DHT22;2663;53.588;10.010;2024-01-30T13:39:08;10.50;99.90
5280;DHT22;2663;53.588;10.010;2024-01-30T13:41:38;10.50;99.90
5280;DHT22;2663;53.588;10.010;2024-01-30T13:44:05;10.50;99.90
5280;DHT22;2663;53.588;10.010;2024-01-30T13:46:32;10.50;99.90
5280;DHT22;2663;53.588;10.010;2024-01-30T13:48:59;10.50;99.90
5280;DHT22;2663;53.588;10.010;2024-01-30T13:51:27;10.50;99.90
5280;DHT22;2663;53.588;10.010;2024-01-30T13:53:54;10.50;99.90
5280;DHT22;2663;53.588;10.010;2024-01-30T13:56:21;10.60;99.90
5280;DHT22;2663;53.588;10.010;2024-01-30T13:58:48;10.60;99.90
5280;DHT22;2663;53.588;10.010;2024-01-30T14:01:16;10.70;99.90
5280;DHT22;2663;53.588;10.010;2024-01-30T14:03:43;10.60;99.90
5280;DHT22;2663;53.588;10.010;2024-01-30T14:06:11;10.70;99.90
5280;DHT22;2663;53.588;10.010;2024-01-30T14:08:38;10.70;99.90
5280;DHT22;2663;53.588;10.010;2024-01-30T14:11:05;10.80;99.90
5280;DHT22;2663;53.588;10.010;2024-01-30T14:13:32;10.80;99.90
5280;DHT22;2663;53.588;10.010;2024-01-30T14:15:59;10.80;99.90
5280;DHT22;2663;53.588;10.010;2024-01-30T14:18:26;10.80;99.90
5280;DHT22;2663;53.588;10.010;2024-01-30T14:20:53;10.80;99.90
5280;DHT22;2663;53.588;10.010;2024-01-30T14:23:21;10.80;99.90
5280;DHT22;2663;53.588;10.010;2024-01-30T14:25:48;10.80;99.90
5280;DHT22;2663;53.588;10.010;2024-01-30T14:28:15;10.90;99.90
5280;DHT22;2663;53.588;10.010;2024-01-30T14:30:42;10.90;99.90
5280;DHT22;2663;53.588;10.010;2024-01-30T14:33:09;11.00;99.90
5280;DHT22;2663;53.588;10.010;2024-01-30T14:35:35;11.00;99.90
5280;DHT22;2663;53.588;10.010;2024-01-30T14:38:02;11.00;99.90
5280;DHT22;2663;53.588;10.010;2024-01-30T14:40:31;11.00;99.90
5280;DHT22;2663;53.588;10.010;2024-01-30T14:42:58;11.10;99.90
5280;DHT22;2663;53.588;10.010;2024-01-30T14:45:25;11.10;99.90
5280;DHT22;2663;53.588;10.010;2024-01-30T14:47:52;11.10;99.90
5280;DHT22;2663;53.588;10.010;2024-01-30T14:50:19;11.00;99.90
5280;DHT22;2663;53.588;10.010;2024-01-30T14:52:46;11.00;99.90
5280;DHT22;2663;53.588;10.010;2024-01-30T14:55:13;11.00;99.90
5280;DHT22;2663;53.588;10.010;2024-01-30T14:57:40;11.10;99.90
5280;DHT22;2663;53.588;10.010;2024-01-30T15:00:09;11.10;99.90
5280;DHT22;2663;53.588;10.010;2024-01-30T15:02:36;11.10;99.90
5280;DHT22;2663;53.588;10.010;2024-01-30T15:05:03;11.20;99.90
5280;DHT22;2663;53.588;10.010;2024-01-30T15:07:31;11.20;99.90
5280;DHT22;2663;53.588;10.010;2024-01-30T15:10:06;11.10;99.90
5280;DHT22;2663;53.588;10.010;2024-01-30T15:12:34;11.50;99.90
5280;DHT22;2663;53.588;10.010;2024-01-30T15:15:01;11.10;99.90
5280;DHT22;2663;53.588;10.010;2024-01-30T15:17:28;11.00;99.90
5280;DHT22;2663;53.588;10.010;2024-01-30T15:19:54;11.10;99.90
5280;DHT22;2663;53.588;10.010;2024-01-30T15:22:21;11.00;99.90
5280;DHT22;2663;53.588;10.010;2024-01-30T15:24:48;11.00;99.90
5280;DHT22;2663;53.588;10.010;2024-01-30T15:27:15;11.00;99.90
5280;DHT22;2663;53.588;10.010;2024-01-30T15:29:42;11.00;99.90
5280;DHT22;2663;53.588;10.010;2024-01-30T15:32:08;11.00;99.90
5280;DHT22;2663;53.588;10.010;2024-01-30T15:34:35;11.00;99.90
5280;DHT22;2663;53.588;10.010;2024-01-30T15:37:02;11.00;99.90
5280;DHT22;2663;53.588;10.010;2024-01-30T15:39:30;11.00;99.90
5280;DHT22;2663;53.588;10.010;2024-01-30T15:41:56;11.00;99.90
5280;DHT22;2663;53.588;10.010;2024-01-30T15:44:25;11.00;99.90
5280;DHT22;2663;53.588;10.010;2024-01-30T15:46:52;11.10;99.90
5280;DHT22;2663;53.588;10.010;2024-01-30T15:49:18;11.10;99.90
5280;DHT22;2663;53.588;10.010;2024-01-30T15:51:45;11.10;99.90
5280;DHT22;2663;53.588;10.010;2024-01-30T15:54:12;11.10;99.90
5280;DHT22;2663;53.588;10.010;2024-01-30T15:56:39;11.00;99.90
5280;DHT22;2663;53.588;10.010;2024-01-30T15:59:06;11.10;99.90